sensor_id;sensor_type;location;lat;lon;timestamp;P1;durP1;ratioP1;P2;durP2;ratioP2
33672;SDS011;20011;51.510;9.942;2023-06-10T00:01:16;9.85;;;7.10;;
33672;SDS011;20011;51.510;9.942;2023-06-10T00:03:43;9.38;;;6.70;;
33672;SDS011;20011;51.510;9.942;2023-06-10T00:06:10;15.32;;;7.07;;
33672;SDS011;20011;51.510;9.942;2023-06-10T00:08:37;11.30;;;7.10;;
33672;SDS011;20011;51.510;9.942;2023-06-10T00:11:06;8.77;;;6.80;;
33672;SDS011;20011;51.510;9.942;2023-06-10T00:13:33;11.05;;;6.78;;
33672;SDS011;20011;51.510;9.942;2023-06-10T00:16:00;8.63;;;6.30;;
33672;SDS011;20011;51.510;9.942;2023-06-10T00:18:26;8.88;;;5.72;;
33672;SDS011;20011;51.510;9.942;2023-06-10T00:20:53;10.57;;;6.72;;
33672;SDS011;20011;51.510;9.942;2023-06-10T00:23:21;8.77;;;5.88;;
33672;SDS011;20011;51.510;9.942;2023-06-10T00:25:48;11.38;;;5.57;;
33672;SDS011;20011;51.510;9.942;2023-06-10T00:28:15;9.65;;;5.68;;
33672;SDS011;20011;51.510;9.942;2023-06-10T00:30:42;8.80;;;6.20;;
33672;SDS011;20011;51.510;9.942;2023-06-10T00:33:09;12.50;;;6.05;;
33672;SDS011;20011;51.510;9.942;2023-06-10T00:35:36;10.25;;;6.25;;
33672;SDS011;20011;51.510;9.942;2023-06-10T00:38:03;7.80;;;5.82;;
33672;SDS011;20011;51.510;9.942;2023-06-10T00:40:30;10.35;;;6.75;;
33672;SDS011;20011;51.510;9.942;2023-06-10T00:42:57;11.75;;;7.10;;
33672;SDS011;20011;51.510;9.942;2023-06-10T00:45:24;11.25;;;7.28;;
33672;SDS011;20011;51.510;9.942;2023-06-10T00:47:51;11.43;;;6.43;;
33672;SDS011;20011;51.510;9.942;2023-06-10T00:50:18;12.15;;;5.93;;
33672;SDS011;20011;51.510;9.942;2023-06-10T00:52:45;12.68;;;7.07;;
33672;SDS011;20011;51.510;9.942;2023-06-10T00:55:16;13.07;;;6.90;;
33672;SDS011;20011;51.510;9.942;2023-06-10T00:57:46;9.20;;;6.63;;
33672;SDS011;20011;51.510;9.942;2023-06-10T01:00:17;11.18;;;6.70;;
33672;SDS011;20011;51.510;9.942;2023-06-10T01:02:45;8.85;;;6.13;;
33672;SDS011;20011;51.510;9.942;2023-06-10T01:05:12;10.98;;;6.57;;
33672;SDS011;20011;51.510;9.942;2023-06-10T01:07:40;8.52;;;6.45;;
33672;SDS011;20011;51.510;9.942;2023-06-10T01:10:24;13.95;;;6.95;;
33672;SDS011;20011;51.510;9.942;2023-06-10T01:13:04;9.60;;;6.10;;
33672;SDS011;20011;51.510;9.942;2023-06-10T01:15:35;13.80;;;6.25;;
33672;SDS011;20011;51.510;9.942;2023-06-10T01:18:02;7.13;;;6.15;;
33672;SDS011;20011;51.510;9.942;2023-06-10T01:20:42;10.43;;;6.22;;
33672;SDS011;20011;51.510;9.942;2023-06-10T01:23:10;10.05;;;6.97;;
33672;SDS011;20011;51.510;9.942;2023-06-10T01:25:38;10.73;;;6.57;;
33672;SDS011;20011;51.510;9.942;2023-06-10T01:33:31;11.30;;;7.13;;
33672;SDS011;20011;51.510;9.942;2023-06-10T01:36:03;9.02;;;6.47;;
33672;SDS011;20011;51.510;9.942;2023-06-10T01:38:32;8.18;;;5.82;;
33672;SDS011;20011;51.510;9.942;2023-06-10T01:41:03;12.63;;;6.82;;
33672;SDS011;20011;51.510;9.942;2023-06-10T01:43:33;11.65;;;5.63;;
33672;SDS011;20011;51.510;9.942;2023-06-10T01:46:00;10.40;;;6.65;;
33672;SDS011;20011;51.510;9.942;2023-06-10T01:48:28;9.85;;;6.00;;
33672;SDS011;20011;51.510;9.942;2023-06-10T01:50:55;9.02;;;6.22;;
33672;SDS011;20011;51.510;9.942;2023-06-10T01:53:22;9.05;;;5.63;;
33672;SDS011;20011;51.510;9.942;2023-06-10T01:55:49;8.88;;;6.15;;
33672;SDS011;20011;51.510;9.942;2023-06-10T01:58:17;12.15;;;6.03;;
33672;SDS011;20011;51.510;9.942;2023-06-10T02:00:44;11.95;;;6.50;;
33672;SDS011;20011;51.510;9.942;2023-06-10T02:03:11;6.65;;;5.03;;
33672;SDS011;20011;51.510;9.942;2023-06-10T02:05:38;10.80;;;6.10;;
33672;SDS011;20011;51.510;9.942;2023-06-10T02:08:07;12.73;;;5.68;;
33672;SDS011;20011;51.510;9.942;2023-06-10T02:10:34;10.45;;;6.53;;
33672;SDS011;20011;51.510;9.942;2023-06-10T02:13:01;8.85;;;6.10;;
33672;SDS011;20011;51.510;9.942;2023-06-10T02:15:28;9.00;;;5.45;;
33672;SDS011;20011;51.510;9.942;2023-06-10T02:17:55;9.38;;;5.93;;
33672;SDS011;20011;51.510;9.942;2023-06-10T02:20:22;13.73;;;5.57;;
33672;SDS011;20011;51.510;9.942;2023-06-10T02:22:49;10.90;;;6.50;;
33672;SDS011;20011;51.510;9.942;2023-06-10T02:25:16;9.18;;;6.07;;
33672;SDS011;20011;51.510;9.942;2023-06-10T02:27:43;15.80;;;8.23;;
33672;SDS011;20011;51.510;9.942;2023-06-10T02:30:10;17.35;;;7.65;;
33672;SDS011;20011;51.510;9.942;2023-06-10T02:32:37;13.63;;;7.70;;
33672;SDS011;20011;51.510;9.942;2023-06-10T02:35:04;28.60;;;7.70;;
33672;SDS011;20011;51.510;9.942;2023-06-10T02:37:32;11.77;;;7.43;;
33672;SDS011;20011;51.510;9.942;2023-06-10T02:39:59;8.77;;;6.95;;
33672;SDS011;20011;51.510;9.942;2023-06-10T02:42:27;13.35;;;7.57;;
33672;SDS011;20011;51.510;9.942;2023-06-10T02:44:53;15.25;;;7.68;;
33672;SDS011;20011;51.510;9.942;2023-06-10T02:47:32;12.15;;;7.68;;
33672;SDS011;20011;51.510;9.942;2023-06-10T02:49:59;10.43;;;7.18;;
33672;SDS011;20011;51.510;9.942;2023-06-10T02:52:28;13.90;;;7.15;;
33672;SDS011;20011;51.510;9.942;2023-06-10T02:54:55;7.93;;;6.65;;
33672;SDS011;20011;51.510;9.942;2023-06-10T02:57:22;10.18;;;7.20;;
33672;SDS011;20011;51.510;9.942;2023-06-10T02:59:49;15.07;;;8.20;;
33672;SDS011;20011;51.510;9.942;2023-06-10T03:02:17;13.98;;;7.70;;
33672;SDS011;20011;51.510;9.942;2023-06-10T03:04:49;11.52;;;7.20;;
33672;SDS011;20011;51.510;9.942;2023-06-10T03:07:17;10.65;;;7.35;;
33672;SDS011;20011;51.510;9.942;2023-06-10T03:09:49;16.02;;;7.82;;
33672;SDS011;20011;51.510;9.942;2023-06-10T03:12:16;16.88;;;7.90;;
33672;SDS011;20011;51.510;9.942;2023-06-10T03:14:46;11.57;;;8.02;;
33672;SDS011;20011;51.510;9.942;2023-06-10T03:17:14;16.23;;;8.18;;
33672;SDS011;20011;51.510;9.942;2023-06-10T03:19:43;10.02;;;7.60;;
33672;SDS011;20011;51.510;9.942;2023-06-10T03:22:12;15.75;;;8.35;;
33672;SDS011;20011;51.510;9.942;2023-06-10T03:24:51;12.80;;;7.85;;
33672;SDS011;20011;51.510;9.942;2023-06-10T03:27:18;14.02;;;8.63;;
33672;SDS011;20011;51.510;9.942;2023-06-10T03:29:49;14.50;;;7.82;;
33672;SDS011;20011;51.510;9.942;2023-06-10T03:32:17;12.07;;;7.93;;
33672;SDS011;20011;51.510;9.942;2023-06-10T03:34:44;13.30;;;8.20;;
33672;SDS011;20011;51.510;9.942;2023-06-10T03:37:12;13.32;;;8.32;;
33672;SDS011;20011;51.510;9.942;2023-06-10T03:39:41;10.05;;;7.35;;
33672;SDS011;20011;51.510;9.942;2023-06-10T03:42:08;12.90;;;7.80;;
33672;SDS011;20011;51.510;9.942;2023-06-10T03:44:35;12.15;;;8.23;;
33672;SDS011;20011;51.510;9.942;2023-06-10T03:47:02;14.00;;;7.72;;
33672;SDS011;20011;51.510;9.942;2023-06-10T03:49:30;12.05;;;7.70;;
33672;SDS011;20011;51.510;9.942;2023-06-10T03:52:00;9.95;;;6.80;;
33672;SDS011;20011;51.510;9.942;2023-06-10T03:54:27;12.10;;;8.20;;
33672;SDS011;20011;51.510;9.942;2023-06-10T03:56:54;13.25;;;7.60;;
33672;SDS011;20011;51.510;9.942;2023-06-10T03:59:21;11.68;;;6.80;;
33672;SDS011;20011;51.510;9.942;2023-06-10T04:01:48;13.57;;;6.30;;
33672;SDS011;20011;51.510;9.942;2023-06-10T04:04:16;10.93;;;6.63;;
33672;SDS011;20011;51.510;9.942;2023-06-10T04:06:43;9.60;;;5.95;;
33672;SDS011;20011;51.510;9.942;2023-06-10T04:09:11;13.48;;;6.55;;
33672;SDS011;20011;51.510;9.942;2023-06-10T04:11:39;13.52;;;6.90;;
33672;SDS011;20011;51.510;9.942;2023-06-10T04:14:06;13.10;;;7.50;;
33672;SDS011;20011;51.510;9.942;2023-06-10T04:16:35;10.35;;;6.82;;
33672;SDS011;20011;51.510;9.942;2023-06-10T04:19:02;11.77;;;7.03;;
33672;SDS011;20011;51.510;9.942;2023-06-10T04:21:29;11.48;;;6.63;;
33672;SDS011;20011;51.510;9.942;2023-06-10T04:23:56;12.20;;;6.80;;
33672;SDS011;20011;51.510;9.942;2023-06-10T04:26:23;11.07;;;7.18;;
33672;SDS011;20011;51.510;9.942;2023-06-10T04:28:52;11.80;;;8.27;;
33672;SDS011;20011;51.510;9.942;2023-06-10T04:31:19;10.82;;;7.25;;
33672;SDS011;20011;51.510;9.942;2023-06-10T04:33:47;12.52;;;8.43;;
33672;SDS011;20011;51.510;9.942;2023-06-10T04:36:14;12.90;;;7.50;;
33672;SDS011;20011;51.510;9.942;2023-06-10T04:38:41;11.60;;;7.38;;
33672;SDS011;20011;51.510;9.942;2023-06-10T04:41:08;11.77;;;7.38;;
33672;SDS011;20011;51.510;9.942;2023-06-10T04:43:36;9.20;;;6.88;;
33672;SDS011;20011;51.510;9.942;2023-06-10T04:46:03;10.82;;;7.35;;
33672;SDS011;20011;51.510;9.942;2023-06-10T04:48:34;15.52;;;8.73;;
33672;SDS011;20011;51.510;9.942;2023-06-10T04:51:03;13.68;;;7.90;;
33672;SDS011;20011;51.510;9.942;2023-06-10T04:53:31;16.30;;;7.28;;
33672;SDS011;20011;51.510;9.942;2023-06-10T04:55:58;18.30;;;8.07;;
33672;SDS011;20011;51.510;9.942;2023-06-10T04:58:25;9.18;;;7.03;;
33672;SDS011;20011;51.510;9.942;2023-06-10T05:00:52;9.48;;;8.05;;
33672;SDS011;20011;51.510;9.942;2023-06-10T05:03:19;10.93;;;7.43;;
33672;SDS011;20011;51.510;9.942;2023-06-10T05:05:46;13.57;;;8.10;;
33672;SDS011;20011;51.510;9.942;2023-06-10T05:08:13;15.55;;;8.05;;
33672;SDS011;20011;51.510;9.942;2023-06-10T05:10:40;9.77;;;7.28;;
33672;SDS011;20011;51.510;9.942;2023-06-10T05:13:07;16.88;;;8.10;;
33672;SDS011;20011;51.510;9.942;2023-06-10T05:15:34;9.77;;;7.50;;
33672;SDS011;20011;51.510;9.942;2023-06-10T05:18:01;11.85;;;7.90;;
33672;SDS011;20011;51.510;9.942;2023-06-10T05:20:30;17.42;;;8.07;;
33672;SDS011;20011;51.510;9.942;2023-06-10T05:22:57;10.32;;;7.53;;
33672;SDS011;20011;51.510;9.942;2023-06-10T05:25:25;14.43;;;8.02;;
33672;SDS011;20011;51.510;9.942;2023-06-10T05:27:53;10.10;;;7.47;;
33672;SDS011;20011;51.510;9.942;2023-06-10T05:30:20;12.63;;;7.47;;
33672;SDS011;20011;51.510;9.942;2023-06-10T05:32:48;11.88;;;8.75;;
33672;SDS011;20011;51.510;9.942;2023-06-10T05:35:15;12.25;;;7.95;;
33672;SDS011;20011;51.510;9.942;2023-06-10T05:37:42;11.13;;;7.82;;
33672;SDS011;20011;51.510;9.942;2023-06-10T05:40:10;17.08;;;8.43;;
33672;SDS011;20011;51.510;9.942;2023-06-10T05:42:37;16.33;;;8.55;;
33672;SDS011;20011;51.510;9.942;2023-06-10T05:45:05;20.10;;;8.73;;
33672;SDS011;20011;51.510;9.942;2023-06-10T05:47:33;18.90;;;8.45;;
33672;SDS011;20011;51.510;9.942;2023-06-10T05:50:00;15.40;;;8.77;;
33672;SDS011;20011;51.510;9.942;2023-06-10T05:52:28;12.07;;;8.00;;
33672;SDS011;20011;51.510;9.942;2023-06-10T05:54:55;15.88;;;9.23;;
33672;SDS011;20011;51.510;9.942;2023-06-10T05:57:22;12.38;;;7.68;;
33672;SDS011;20011;51.510;9.942;2023-06-10T05:59:49;11.35;;;8.02;;
33672;SDS011;20011;51.510;9.942;2023-06-10T06:02:16;12.73;;;8.02;;
33672;SDS011;20011;51.510;9.942;2023-06-10T06:04:43;9.77;;;7.13;;
33672;SDS011;20011;51.510;9.942;2023-06-10T06:07:10;13.32;;;7.50;;
33672;SDS011;20011;51.510;9.942;2023-06-10T06:09:37;17.50;;;7.35;;
33672;SDS011;20011;51.510;9.942;2023-06-10T06:12:04;11.73;;;6.53;;
33672;SDS011;20011;51.510;9.942;2023-06-10T06:14:33;11.48;;;6.80;;
33672;SDS011;20011;51.510;9.942;2023-06-10T06:17:04;15.10;;;5.78;;
33672;SDS011;20011;51.510;9.942;2023-06-10T06:19:31;15.88;;;5.95;;
33672;SDS011;20011;51.510;9.942;2023-06-10T06:21:58;15.48;;;5.22;;
33672;SDS011;20011;51.510;9.942;2023-06-10T06:24:25;12.18;;;5.78;;
33672;SDS011;20011;51.510;9.942;2023-06-10T06:26:52;15.20;;;5.43;;
33672;SDS011;20011;51.510;9.942;2023-06-10T06:29:19;13.50;;;4.80;;
33672;SDS011;20011;51.510;9.942;2023-06-10T06:31:45;19.13;;;5.13;;
33672;SDS011;20011;51.510;9.942;2023-06-10T06:34:12;8.25;;;4.28;;
33672;SDS011;20011;51.510;9.942;2023-06-10T06:36:42;14.25;;;5.18;;
33672;SDS011;20011;51.510;9.942;2023-06-10T06:39:09;14.32;;;5.65;;
33672;SDS011;20011;51.510;9.942;2023-06-10T06:41:36;12.30;;;4.47;;
33672;SDS011;20011;51.510;9.942;2023-06-10T06:44:02;13.65;;;4.75;;
33672;SDS011;20011;51.510;9.942;2023-06-10T06:46:35;13.70;;;4.60;;
33672;SDS011;20011;51.510;9.942;2023-06-10T06:49:02;8.57;;;4.30;;
33672;SDS011;20011;51.510;9.942;2023-06-10T06:51:29;15.52;;;5.05;;
33672;SDS011;20011;51.510;9.942;2023-06-10T06:53:56;8.82;;;4.88;;
33672;SDS011;20011;51.510;9.942;2023-06-10T06:56:25;11.10;;;4.50;;
33672;SDS011;20011;51.510;9.942;2023-06-10T06:58:53;12.50;;;4.10;;
33672;SDS011;20011;51.510;9.942;2023-06-10T07:01:23;8.98;;;5.35;;
33672;SDS011;20011;51.510;9.942;2023-06-10T07:03:50;10.07;;;4.60;;
33672;SDS011;20011;51.510;9.942;2023-06-10T07:06:17;9.80;;;4.30;;
33672;SDS011;20011;51.510;9.942;2023-06-10T07:08:44;12.70;;;4.93;;
33672;SDS011;20011;51.510;9.942;2023-06-10T07:11:11;16.38;;;4.72;;
33672;SDS011;20011;51.510;9.942;2023-06-10T07:13:38;11.93;;;4.60;;
33672;SDS011;20011;51.510;9.942;2023-06-10T07:16:11;13.30;;;4.40;;
33672;SDS011;20011;51.510;9.942;2023-06-10T07:18:38;8.73;;;4.32;;
33672;SDS011;20011;51.510;9.942;2023-06-10T07:23:57;18.98;;;5.13;;
33672;SDS011;20011;51.510;9.942;2023-06-10T07:26:24;17.00;;;4.60;;
33672;SDS011;20011;51.510;9.942;2023-06-10T07:28:52;13.27;;;4.60;;
33672;SDS011;20011;51.510;9.942;2023-06-10T07:31:19;8.60;;;4.22;;
33672;SDS011;20011;51.510;9.942;2023-06-10T07:33:46;10.02;;;4.38;;
33672;SDS011;20011;51.510;9.942;2023-06-10T07:36:13;7.00;;;4.28;;
33672;SDS011;20011;51.510;9.942;2023-06-10T07:38:40;14.05;;;4.93;;
33672;SDS011;20011;51.510;9.942;2023-06-10T07:41:08;10.77;;;4.38;;
33672;SDS011;20011;51.510;9.942;2023-06-10T07:43:36;9.63;;;4.85;;
33672;SDS011;20011;51.510;9.942;2023-06-10T07:46:03;6.97;;;4.15;;
33672;SDS011;20011;51.510;9.942;2023-06-10T07:48:32;10.07;;;4.47;;
33672;SDS011;20011;51.510;9.942;2023-06-10T07:50:58;8.93;;;4.55;;
33672;SDS011;20011;51.510;9.942;2023-06-10T07:53:26;12.13;;;5.38;;
33672;SDS011;20011;51.510;9.942;2023-06-10T07:55:53;9.20;;;4.43;;
33672;SDS011;20011;51.510;9.942;2023-06-10T07:58:20;16.40;;;5.00;;
33672;SDS011;20011;51.510;9.942;2023-06-10T08:00:48;11.35;;;4.70;;
33672;SDS011;20011;51.510;9.942;2023-06-10T08:03:15;6.57;;;4.20;;
33672;SDS011;20011;51.510;9.942;2023-06-10T08:05:42;11.80;;;4.88;;
33672;SDS011;20011;51.510;9.942;2023-06-10T08:08:09;9.75;;;4.82;;
33672;SDS011;20011;51.510;9.942;2023-06-10T08:10:36;14.15;;;4.70;;
33672;SDS011;20011;51.510;9.942;2023-06-10T08:13:03;13.25;;;5.93;;
33672;SDS011;20011;51.510;9.942;2023-06-10T08:15:30;10.48;;;4.88;;
33672;SDS011;20011;51.510;9.942;2023-06-10T08:17:57;23.10;;;4.90;;
33672;SDS011;20011;51.510;9.942;2023-06-10T08:20:25;11.35;;;4.53;;
33672;SDS011;20011;51.510;9.942;2023-06-10T08:22:51;17.02;;;5.45;;
33672;SDS011;20011;51.510;9.942;2023-06-10T08:25:18;13.68;;;5.28;;
33672;SDS011;20011;51.510;9.942;2023-06-10T08:27:48;9.27;;;4.83;;
33672;SDS011;20011;51.510;9.942;2023-06-10T08:30:16;10.23;;;4.80;;
33672;SDS011;20011;51.510;9.942;2023-06-10T08:32:44;11.48;;;4.88;;
33672;SDS011;20011;51.510;9.942;2023-06-10T08:35:11;10.57;;;4.82;;
33672;SDS011;20011;51.510;9.942;2023-06-10T08:37:38;12.02;;;5.40;;
33672;SDS011;20011;51.510;9.942;2023-06-10T08:40:05;9.65;;;4.78;;
33672;SDS011;20011;51.510;9.942;2023-06-10T08:42:33;9.63;;;4.13;;
33672;SDS011;20011;51.510;9.942;2023-06-10T08:45:06;22.95;;;4.90;;
33672;SDS011;20011;51.510;9.942;2023-06-10T08:47:37;12.43;;;5.07;;
33672;SDS011;20011;51.510;9.942;2023-06-10T08:50:09;12.88;;;5.30;;
33672;SDS011;20011;51.510;9.942;2023-06-10T08:52:41;12.95;;;5.75;;
33672;SDS011;20011;51.510;9.942;2023-06-10T08:55:11;10.05;;;4.90;;
33672;SDS011;20011;51.510;9.942;2023-06-10T08:57:46;8.02;;;4.63;;
33672;SDS011;20011;51.510;9.942;2023-06-10T09:00:15;8.13;;;4.50;;
33672;SDS011;20011;51.510;9.942;2023-06-10T09:02:42;10.18;;;4.60;;
33672;SDS011;20011;51.510;9.942;2023-06-10T09:05:10;11.25;;;5.00;;
33672;SDS011;20011;51.510;9.942;2023-06-10T09:07:38;7.55;;;4.35;;
33672;SDS011;20011;51.510;9.942;2023-06-10T09:10:05;7.97;;;5.32;;
33672;SDS011;20011;51.510;9.942;2023-06-10T09:12:35;8.27;;;4.38;;
33672;SDS011;20011;51.510;9.942;2023-06-10T09:15:05;12.30;;;5.00;;
33672;SDS011;20011;51.510;9.942;2023-06-10T09:17:33;6.38;;;4.10;;
33672;SDS011;20011;51.510;9.942;2023-06-10T09:20:00;12.98;;;5.13;;
33672;SDS011;20011;51.510;9.942;2023-06-10T09:22:29;16.63;;;4.40;;
33672;SDS011;20011;51.510;9.942;2023-06-10T09:25:05;11.30;;;5.43;;
33672;SDS011;20011;51.510;9.942;2023-06-10T09:30:27;6.30;;;4.15;;
33672;SDS011;20011;51.510;9.942;2023-06-10T09:32:55;7.28;;;4.65;;
33672;SDS011;20011;51.510;9.942;2023-06-10T09:35:28;10.35;;;5.20;;
33672;SDS011;20011;51.510;9.942;2023-06-10T09:37:57;12.93;;;6.18;;
33672;SDS011;20011;51.510;9.942;2023-06-10T09:40:26;7.00;;;4.10;;
33672;SDS011;20011;51.510;9.942;2023-06-10T09:42:55;3.88;;;3.15;;
33672;SDS011;20011;51.510;9.942;2023-06-10T09:45:31;10.90;;;3.78;;
33672;SDS011;20011;51.510;9.942;2023-06-10T09:47:59;11.13;;;5.13;;
33672;SDS011;20011;51.510;9.942;2023-06-10T09:50:27;7.18;;;4.22;;
33672;SDS011;20011;51.510;9.942;2023-06-10T09:52:54;7.35;;;3.90;;
33672;SDS011;20011;51.510;9.942;2023-06-10T09:55:21;5.10;;;2.88;;
33672;SDS011;20011;51.510;9.942;2023-06-10T09:57:49;6.18;;;3.47;;
33672;SDS011;20011;51.510;9.942;2023-06-10T10:00:21;8.30;;;4.88;;
33672;SDS011;20011;51.510;9.942;2023-06-10T10:02:49;13.50;;;6.10;;
33672;SDS011;20011;51.510;9.942;2023-06-10T10:05:21;9.95;;;3.75;;
33672;SDS011;20011;51.510;9.942;2023-06-10T10:07:49;6.20;;;3.63;;
33672;SDS011;20011;51.510;9.942;2023-06-10T10:10:17;5.40;;;3.15;;
33672;SDS011;20011;51.510;9.942;2023-06-10T10:12:46;8.35;;;3.90;;
33672;SDS011;20011;51.510;9.942;2023-06-10T10:15:15;11.00;;;4.60;;
33672;SDS011;20011;51.510;9.942;2023-06-10T10:17:54;8.65;;;5.07;;
33672;SDS011;20011;51.510;9.942;2023-06-10T10:20:26;22.92;;;7.85;;
33672;SDS011;20011;51.510;9.942;2023-06-10T10:22:57;13.25;;;7.15;;
33672;SDS011;20011;51.510;9.942;2023-06-10T10:25:28;12.45;;;6.65;;
33672;SDS011;20011;51.510;9.942;2023-06-10T10:28:02;13.27;;;5.60;;
33672;SDS011;20011;51.510;9.942;2023-06-10T10:30:37;10.73;;;4.38;;
33672;SDS011;20011;51.510;9.942;2023-06-10T10:33:16;15.00;;;5.70;;
33672;SDS011;20011;51.510;9.942;2023-06-10T10:35:46;15.32;;;5.38;;
33672;SDS011;20011;51.510;9.942;2023-06-10T10:38:14;12.88;;;4.88;;
33672;SDS011;20011;51.510;9.942;2023-06-10T10:40:41;6.40;;;3.97;;
33672;SDS011;20011;51.510;9.942;2023-06-10T10:43:10;5.57;;;3.28;;
33672;SDS011;20011;51.510;9.942;2023-06-10T10:45:37;9.25;;;3.45;;
33672;SDS011;20011;51.510;9.942;2023-06-10T10:48:05;8.90;;;4.90;;
33672;SDS011;20011;51.510;9.942;2023-06-10T10:50:36;10.88;;;4.95;;
33672;SDS011;20011;51.510;9.942;2023-06-10T10:53:04;18.23;;;4.80;;
33672;SDS011;20011;51.510;9.942;2023-06-10T10:55:32;10.45;;;5.50;;
33672;SDS011;20011;51.510;9.942;2023-06-10T10:58:02;7.10;;;5.15;;
33672;SDS011;20011;51.510;9.942;2023-06-10T11:00:34;20.60;;;4.95;;
33672;SDS011;20011;51.510;9.942;2023-06-10T11:03:04;4.93;;;3.85;;
33672;SDS011;20011;51.510;9.942;2023-06-10T11:05:41;5.53;;;3.92;;
33672;SDS011;20011;51.510;9.942;2023-06-10T11:08:15;5.20;;;3.20;;
33672;SDS011;20011;51.510;9.942;2023-06-10T11:11:17;3.58;;;3.10;;
33672;SDS011;20011;51.510;9.942;2023-06-10T11:16:28;6.53;;;3.80;;
33672;SDS011;20011;51.510;9.942;2023-06-10T11:18:55;4.78;;;3.50;;
33672;SDS011;20011;51.510;9.942;2023-06-10T11:21:23;5.35;;;2.85;;
33672;SDS011;20011;51.510;9.942;2023-06-10T11:23:57;4.85;;;3.50;;
33672;SDS011;20011;51.510;9.942;2023-06-10T11:31:26;5.95;;;4.07;;
33672;SDS011;20011;51.510;9.942;2023-06-10T11:34:12;3.75;;;3.13;;
33672;SDS011;20011;51.510;9.942;2023-06-10T11:36:40;4.45;;;3.42;;
33672;SDS011;20011;51.510;9.942;2023-06-10T11:39:11;6.15;;;2.97;;
33672;SDS011;20011;51.510;9.942;2023-06-10T11:41:39;4.30;;;3.22;;
33672;SDS011;20011;51.510;9.942;2023-06-10T11:44:07;5.40;;;3.10;;
33672;SDS011;20011;51.510;9.942;2023-06-10T11:46:34;3.83;;;2.95;;
33672;SDS011;20011;51.510;9.942;2023-06-10T11:49:03;9.50;;;4.90;;
33672;SDS011;20011;51.510;9.942;2023-06-10T11:51:35;7.00;;;5.23;;
33672;SDS011;20011;51.510;9.942;2023-06-10T11:54:10;8.18;;;5.25;;
33672;SDS011;20011;51.510;9.942;2023-06-10T11:56:37;8.70;;;5.35;;
33672;SDS011;20011;51.510;9.942;2023-06-10T11:59:04;10.10;;;6.10;;
33672;SDS011;20011;51.510;9.942;2023-06-10T12:04:10;11.57;;;5.75;;
33672;SDS011;20011;51.510;9.942;2023-06-10T12:06:40;13.07;;;5.72;;
33672;SDS011;20011;51.510;9.942;2023-06-10T12:09:14;9.73;;;5.55;;
33672;SDS011;20011;51.510;9.942;2023-06-10T12:11:52;10.90;;;5.43;;
33672;SDS011;20011;51.510;9.942;2023-06-10T12:17:34;6.35;;;3.47;;
33672;SDS011;20011;51.510;9.942;2023-06-10T12:20:05;9.82;;;4.50;;
33672;SDS011;20011;51.510;9.942;2023-06-10T12:22:38;5.05;;;4.10;;
33672;SDS011;20011;51.510;9.942;2023-06-10T12:25:09;10.13;;;6.40;;
33672;SDS011;20011;51.510;9.942;2023-06-10T12:27:38;10.50;;;5.67;;
33672;SDS011;20011;51.510;9.942;2023-06-10T12:30:07;6.18;;;4.60;;
33672;SDS011;20011;51.510;9.942;2023-06-10T12:32:41;3.72;;;3.20;;
33672;SDS011;20011;51.510;9.942;2023-06-10T12:35:11;10.48;;;3.22;;
33672;SDS011;20011;51.510;9.942;2023-06-10T12:37:40;3.35;;;3.05;;
33672;SDS011;20011;51.510;9.942;2023-06-10T12:40:09;4.20;;;2.72;;
33672;SDS011;20011;51.510;9.942;2023-06-10T12:42:37;4.82;;;3.20;;
33672;SDS011;20011;51.510;9.942;2023-06-10T12:45:05;4.57;;;3.30;;
33672;SDS011;20011;51.510;9.942;2023-06-10T12:47:36;3.55;;;2.40;;
33672;SDS011;20011;51.510;9.942;2023-06-10T12:50:08;3.50;;;2.60;;
33672;SDS011;20011;51.510;9.942;2023-06-10T12:52:36;3.08;;;2.53;;
33672;SDS011;20011;51.510;9.942;2023-06-10T12:55:03;6.18;;;3.50;;
33672;SDS011;20011;51.510;9.942;2023-06-10T12:57:31;8.93;;;4.72;;
33672;SDS011;20011;51.510;9.942;2023-06-10T12:59:58;13.73;;;4.63;;
33672;SDS011;20011;51.510;9.942;2023-06-10T13:02:31;10.77;;;4.72;;
33672;SDS011;20011;51.510;9.942;2023-06-10T13:04:58;6.63;;;3.75;;
33672;SDS011;20011;51.510;9.942;2023-06-10T13:07:25;8.23;;;3.75;;
33672;SDS011;20011;51.510;9.942;2023-06-10T13:09:53;8.82;;;4.45;;
33672;SDS011;20011;51.510;9.942;2023-06-10T13:12:21;7.15;;;4.53;;
33672;SDS011;20011;51.510;9.942;2023-06-10T13:15:08;7.63;;;4.22;;
33672;SDS011;20011;51.510;9.942;2023-06-10T13:17:36;13.13;;;4.95;;
33672;SDS011;20011;51.510;9.942;2023-06-10T13:20:04;9.32;;;4.15;;
33672;SDS011;20011;51.510;9.942;2023-06-10T13:22:32;8.75;;;4.45;;
33672;SDS011;20011;51.510;9.942;2023-06-10T13:25:02;11.85;;;4.20;;
33672;SDS011;20011;51.510;9.942;2023-06-10T13:27:30;10.38;;;4.10;;
33672;SDS011;20011;51.510;9.942;2023-06-10T13:29:57;6.03;;;3.83;;
33672;SDS011;20011;51.510;9.942;2023-06-10T13:32:24;6.55;;;4.40;;
33672;SDS011;20011;51.510;9.942;2023-06-10T13:34:53;5.13;;;3.92;;
33672;SDS011;20011;51.510;9.942;2023-06-10T13:37:20;4.72;;;3.00;;
33672;SDS011;20011;51.510;9.942;2023-06-10T13:39:47;3.22;;;2.92;;
33672;SDS011;20011;51.510;9.942;2023-06-10T13:42:19;6.85;;;3.28;;
33672;SDS011;20011;51.510;9.942;2023-06-10T13:44:47;3.85;;;3.15;;
33672;SDS011;20011;51.510;9.942;2023-06-10T13:47:14;2.70;;;2.40;;
33672;SDS011;20011;51.510;9.942;2023-06-10T13:49:41;3.83;;;2.90;;
33672;SDS011;20011;51.510;9.942;2023-06-10T13:52:08;3.55;;;3.08;;
33672;SDS011;20011;51.510;9.942;2023-06-10T13:54:35;3.67;;;3.15;;
33672;SDS011;20011;51.510;9.942;2023-06-10T13:57:03;4.40;;;2.72;;
33672;SDS011;20011;51.510;9.942;2023-06-10T13:59:31;4.38;;;2.88;;
33672;SDS011;20011;51.510;9.942;2023-06-10T14:01:59;3.28;;;2.97;;
33672;SDS011;20011;51.510;9.942;2023-06-10T14:04:27;4.32;;;3.05;;
33672;SDS011;20011;51.510;9.942;2023-06-10T14:06:54;4.03;;;3.03;;
33672;SDS011;20011;51.510;9.942;2023-06-10T14:09:21;6.38;;;3.33;;
33672;SDS011;20011;51.510;9.942;2023-06-10T14:11:48;11.50;;;4.32;;
33672;SDS011;20011;51.510;9.942;2023-06-10T14:14:15;10.65;;;3.10;;
33672;SDS011;20011;51.510;9.942;2023-06-10T14:16:42;5.55;;;3.58;;
33672;SDS011;20011;51.510;9.942;2023-06-10T14:19:09;7.35;;;3.22;;
33672;SDS011;20011;51.510;9.942;2023-06-10T14:21:37;7.20;;;3.30;;
33672;SDS011;20011;51.510;9.942;2023-06-10T14:24:04;6.35;;;3.92;;
33672;SDS011;20011;51.510;9.942;2023-06-10T14:26:31;5.78;;;3.47;;
33672;SDS011;20011;51.510;9.942;2023-06-10T14:28:59;4.97;;;2.97;;
33672;SDS011;20011;51.510;9.942;2023-06-10T14:31:26;4.88;;;3.42;;
33672;SDS011;20011;51.510;9.942;2023-06-10T14:33:53;8.88;;;3.28;;
33672;SDS011;20011;51.510;9.942;2023-06-10T14:36:20;7.85;;;3.53;;
33672;SDS011;20011;51.510;9.942;2023-06-10T14:38:47;4.75;;;3.28;;
33672;SDS011;20011;51.510;9.942;2023-06-10T14:41:14;4.00;;;2.90;;
33672;SDS011;20011;51.510;9.942;2023-06-10T14:43:41;5.55;;;3.15;;
33672;SDS011;20011;51.510;9.942;2023-06-10T14:46:08;4.82;;;2.78;;
33672;SDS011;20011;51.510;9.942;2023-06-10T14:48:35;7.28;;;3.42;;
33672;SDS011;20011;51.510;9.942;2023-06-10T14:51:02;4.47;;;2.90;;
33672;SDS011;20011;51.510;9.942;2023-06-10T14:53:29;4.22;;;2.92;;
33672;SDS011;20011;51.510;9.942;2023-06-10T14:55:56;4.50;;;3.05;;
33672;SDS011;20011;51.510;9.942;2023-06-10T14:58:23;3.85;;;2.80;;
33672;SDS011;20011;51.510;9.942;2023-06-10T15:00:50;7.80;;;3.38;;
33672;SDS011;20011;51.510;9.942;2023-06-10T15:03:17;5.75;;;2.70;;
33672;SDS011;20011;51.510;9.942;2023-06-10T15:05:44;4.30;;;2.80;;
33672;SDS011;20011;51.510;9.942;2023-06-10T15:08:11;9.25;;;3.47;;
33672;SDS011;20011;51.510;9.942;2023-06-10T15:10:38;3.83;;;2.70;;
33672;SDS011;20011;51.510;9.942;2023-06-10T15:13:06;4.47;;;3.00;;